首页
METAR-TAF:

METAR-TAF

机场 :

德島飛行場

德島, 日本

纬度: 34-08N, 经度: 134-37E, 海拔: 8米

当前天气观测

该预报发布于25小时和9分钟前的00:08 UTC
风速3节,风向南转南东,在东转东南之间变化
温度 28°C
湿度 89%
气压 1013 hPa
能見度: 5000
散云层高于1000英尺
多云
轻雾

METAR: RJOS 170008Z 16003KT 120V190 5000 BR SCT010 BKN/// 28/26 Q1013 RMK 3ST010 A2992 VIS VRB

时间: 10:17 (01:17 UTC)


TAF: 丢失

超过4000个机场的气象观测和天气预报(METAR&TAF报告)。

可查询的气象台以黄色和红色小点在地图上表示。

将鼠标移到小点上方,可查看气象台名称。

然后点击查看天气观测和预报。

如需切换地图:点击带黑十字的绿色按钮放大地图;点击带横线的绿色按钮缩小地图;或者点击绿色箭头查看邻近地区的地图。


METAR-TAF: